sensor_id;sensor_type;location;lat;lon;timestamp;pressure;altitude;pressure_sealevel;temperature;humidity
70304;BME280;57712;48.752;11.348;2023-05-23T00:00:15;97160.13;;;16.95;100.00
70304;BME280;57712;48.752;11.348;2023-05-23T00:02:42;97154.00;;;16.91;100.00
70304;BME280;57712;48.752;11.348;2023-05-23T00:05:10;97151.53;;;16.93;100.00
70304;BME280;57712;48.752;11.348;2023-05-23T00:07:36;97153.97;;;17.00;100.00
70304;BME280;57712;48.752;11.348;2023-05-23T00:10:04;97145.66;;;17.00;100.00
70304;BME280;57712;48.752;11.348;2023-05-23T00:12:31;97144.72;;;17.03;100.00
70304;BME280;57712;48.752;11.348;2023-05-23T00:14:58;97154.59;;;16.95;100.00
70304;BME280;57712;48.752;11.348;2023-05-23T00:17:26;97157.06;;;16.93;100.00
70304;BME280;57712;48.752;11.348;2023-05-23T00:19:53;97158.31;;;16.92;100.00
70304;BME280;57712;48.752;11.348;2023-05-23T00:22:21;97154.78;;;16.91;100.00
70304;BME280;57712;48.752;11.348;2023-05-23T00:24:48;97162.78;;;16.89;100.00
70304;BME280;57712;48.752;11.348;2023-05-23T00:27:15;97157.06;;;16.93;100.00
70304;BME280;57712;48.752;11.348;2023-05-23T00:29:41;97156.88;;;16.96;100.00
70304;BME280;57712;48.752;11.348;2023-05-23T00:32:08;97152.13;;;16.97;100.00
70304;BME280;57712;48.752;11.348;2023-05-23T00:34:35;97159.94;;;16.98;100.00
70304;BME280;57712;48.752;11.348;2023-05-23T00:37:03;97153.66;;;16.98;100.00
70304;BME280;57712;48.752;11.348;2023-05-23T00:39:30;97161.50;;;16.99;100.00
70304;BME280;57712;48.752;11.348;2023-05-23T00:41:57;97166.59;;;16.92;100.00
70304;BME280;57712;48.752;11.348;2023-05-23T00:44:23;97168.38;;;17.04;100.00
70304;BME280;57712;48.752;11.348;2023-05-23T00:46:53;97172.56;;;16.99;100.00
70304;BME280;57712;48.752;11.348;2023-05-23T00:49:21;97170.25;;;16.98;100.00
70304;BME280;57712;48.752;11.348;2023-05-23T00:51:50;97184.44;;;16.91;100.00
70304;BME280;57712;48.752;11.348;2023-05-23T00:54:20;97174.25;;;16.97;100.00
70304;BME280;57712;48.752;11.348;2023-05-23T00:56:49;97181.84;;;16.87;100.00
70304;BME280;57712;48.752;11.348;2023-05-23T00:59:16;97180.78;;;16.85;100.00
70304;BME280;57712;48.752;11.348;2023-05-23T01:01:43;97174.50;;;16.75;100.00
70304;BME280;57712;48.752;11.348;2023-05-23T01:04:13;97177.75;;;16.64;100.00
70304;BME280;57712;48.752;11.348;2023-05-23T01:06:42;97183.00;;;16.62;100.00
70304;BME280;57712;48.752;11.348;2023-05-23T01:09:14;97183.00;;;16.62;100.00
70304;BME280;57712;48.752;11.348;2023-05-23T01:11:45;97190.09;;;16.54;100.00
70304;BME280;57712;48.752;11.348;2023-05-23T01:14:28;97182.69;;;16.60;100.00
70304;BME280;57712;48.752;11.348;2023-05-23T01:17:03;97188.84;;;16.55;100.00
70304;BME280;57712;48.752;11.348;2023-05-23T01:19:57;97197.78;;;16.50;100.00
70304;BME280;57712;48.752;11.348;2023-05-23T01:28:16;97197.88;;;16.65;100.00
70304;BME280;57712;48.752;11.348;2023-05-23T01:30:45;97194.72;;;16.48;100.00
70304;BME280;57712;48.752;11.348;2023-05-23T01:33:14;97199.59;;;16.62;100.00
70304;BME280;57712;48.752;11.348;2023-05-23T01:35:42;97191.00;;;16.60;100.00
70304;BME280;57712;48.752;11.348;2023-05-23T01:38:09;97195.13;;;16.65;100.00
70304;BME280;57712;48.752;11.348;2023-05-23T01:40:36;97191.59;;;16.64;100.00
70304;BME280;57712;48.752;11.348;2023-05-23T01:43:03;97189.28;;;16.63;100.00
70304;BME280;57712;48.752;11.348;2023-05-23T01:45:30;97195.38;;;16.34;100.00
70304;BME280;57712;48.752;11.348;2023-05-23T01:47:57;97203.66;;;16.34;100.00
70304;BME280;57712;48.752;11.348;2023-05-23T01:50:25;97200.91;;;16.34;100.00
70304;BME280;57712;48.752;11.348;2023-05-23T01:52:52;97194.75;;;16.39;100.00
70304;BME280;57712;48.752;11.348;2023-05-23T01:55:21;97196.63;;;16.24;100.00
70304;BME280;57712;48.752;11.348;2023-05-23T01:57:50;97207.09;;;16.10;100.00
70304;BME280;57712;48.752;11.348;2023-05-23T02:00:18;97196.97;;;15.98;100.00
70304;BME280;57712;48.752;11.348;2023-05-23T02:02:45;97199.44;;;15.87;100.00
70304;BME280;57712;48.752;11.348;2023-05-23T02:05:12;97203.75;;;15.88;100.00
70304;BME280;57712;48.752;11.348;2023-05-23T02:07:39;97202.97;;;15.87;100.00
70304;BME280;57712;48.752;11.348;2023-05-23T02:10:07;97194.69;;;15.97;100.00
70304;BME280;57712;48.752;11.348;2023-05-23T02:12:34;97200.97;;;15.97;100.00
70304;BME280;57712;48.752;11.348;2023-05-23T02:15:01;97203.56;;;15.92;100.00
70304;BME280;57712;48.752;11.348;2023-05-23T02:17:27;97198.81;;;15.83;100.00
70304;BME280;57712;48.752;11.348;2023-05-23T02:19:54;97207.09;;;15.83;100.00
70304;BME280;57712;48.752;11.348;2023-05-23T02:22:23;97213.53;;;15.62;100.00
70304;BME280;57712;48.752;11.348;2023-05-23T02:24:52;97221.50;;;15.59;100.00
70304;BME280;57712;48.752;11.348;2023-05-23T02:27:19;97217.84;;;15.53;100.00
70304;BME280;57712;48.752;11.348;2023-05-23T02:29:45;97220.94;;;15.65;100.00
70304;BME280;57712;48.752;11.348;2023-05-23T02:32:12;97223.38;;;15.63;100.00
70304;BME280;57712;48.752;11.348;2023-05-23T02:34:39;97219.66;;;15.47;100.00
70304;BME280;57712;48.752;11.348;2023-05-23T02:37:06;97224.25;;;15.50;100.00
70304;BME280;57712;48.752;11.348;2023-05-23T02:39:35;97226.69;;;15.48;100.00
70304;BME280;57712;48.752;11.348;2023-05-23T02:42:02;97227.91;;;15.38;100.00
70304;BME280;57712;48.752;11.348;2023-05-23T02:44:30;97223.34;;;15.53;100.00
70304;BME280;57712;48.752;11.348;2023-05-23T02:46:57;97231.13;;;15.37;100.00
70304;BME280;57712;48.752;11.348;2023-05-23T02:49:23;97230.66;;;15.29;100.00
70304;BME280;57712;48.752;11.348;2023-05-23T02:51:50;97225.16;;;15.38;100.00
70304;BME280;57712;48.752;11.348;2023-05-23T02:54:17;97216.25;;;15.34;100.00
70304;BME280;57712;48.752;11.348;2023-05-23T02:56:44;97218.72;;;15.32;100.00
70304;BME280;57712;48.752;11.348;2023-05-23T02:59:11;97222.41;;;15.38;100.00
70304;BME280;57712;48.752;11.348;2023-05-23T03:01:38;97223.00;;;15.24;100.00
70304;BME280;57712;48.752;11.348;2023-05-23T03:04:04;97226.66;;;15.30;100.00
70304;BME280;57712;48.752;11.348;2023-05-23T03:06:31;97224.81;;;15.18;100.00
70304;BME280;57712;48.752;11.348;2023-05-23T03:09:00;97228.19;;;15.31;100.00
70304;BME280;57712;48.752;11.348;2023-05-23T03:11:27;97227.56;;;15.18;100.00
70304;BME280;57712;48.752;11.348;2023-05-23T03:13:55;97225.88;;;15.11;100.00
70304;BME280;57712;48.752;11.348;2023-05-23T03:16:22;97226.97;;;15.23;100.00
70304;BME280;57712;48.752;11.348;2023-05-23T03:18:49;97238.44;;;15.12;100.00
70304;BME280;57712;48.752;11.348;2023-05-23T03:21:16;97229.38;;;15.02;100.00
70304;BME280;57712;48.752;11.348;2023-05-23T03:23:43;97242.22;;;14.96;100.00
70304;BME280;57712;48.752;11.348;2023-05-23T03:26:09;97236.88;;;15.02;100.00
70304;BME280;57712;48.752;11.348;2023-05-23T03:28:37;97241.91;;;14.94;100.00
70304;BME280;57712;48.752;11.348;2023-05-23T03:31:03;97249.06;;;14.83;100.00
70304;BME280;57712;48.752;11.348;2023-05-23T03:33:30;97251.25;;;14.97;100.00
70304;BME280;57712;48.752;11.348;2023-05-23T03:35:57;97247.09;;;14.92;100.00
70304;BME280;57712;48.752;11.348;2023-05-23T03:38:25;97245.13;;;14.93;100.00
70304;BME280;57712;48.752;11.348;2023-05-23T03:40:52;97248.66;;;14.93;100.00
70304;BME280;57712;48.752;11.348;2023-05-23T03:43:19;97251.22;;;14.88;100.00
70304;BME280;57712;48.752;11.348;2023-05-23T03:45:46;97257.38;;;14.92;100.00
70304;BME280;57712;48.752;11.348;2023-05-23T03:48:14;97259.53;;;14.97;100.00
70304;BME280;57712;48.752;11.348;2023-05-23T03:50:41;97254.47;;;14.95;100.00
70304;BME280;57712;48.752;11.348;2023-05-23T03:53:08;97255.44;;;15.11;100.00
70304;BME280;57712;48.752;11.348;2023-05-23T03:55:34;97250.09;;;15.16;100.00
70304;BME280;57712;48.752;11.348;2023-05-23T03:58:01;97243.38;;;15.26;100.00
70304;BME280;57712;48.752;11.348;2023-05-23T04:00:28;97242.88;;;15.19;100.00
70304;BME280;57712;48.752;11.348;2023-05-23T04:02:55;97244.75;;;15.31;100.00
70304;BME280;57712;48.752;11.348;2023-05-23T04:05:22;97242.34;;;15.33;100.00
70304;BME280;57712;48.752;11.348;2023-05-23T04:07:49;97239.09;;;15.35;100.00
70304;BME280;57712;48.752;11.348;2023-05-23T04:10:17;97238.34;;;15.34;100.00
70304;BME280;57712;48.752;11.348;2023-05-23T04:12:43;97251.84;;;15.32;100.00
70304;BME280;57712;48.752;11.348;2023-05-23T04:15:10;97255.50;;;15.38;100.00
70304;BME280;57712;48.752;11.348;2023-05-23T04:17:37;97258.59;;;15.40;100.00
70304;BME280;57712;48.752;11.348;2023-05-23T04:20:08;97262.75;;;15.45;100.00
70304;BME280;57712;48.752;11.348;2023-05-23T04:22:35;97269.94;;;15.51;100.00
70304;BME280;57712;48.752;11.348;2023-05-23T04:25:02;97282.25;;;15.59;100.00
70304;BME280;57712;48.752;11.348;2023-05-23T04:27:29;97268.66;;;15.65;100.00
70304;BME280;57712;48.752;11.348;2023-05-23T04:29:56;97272.78;;;15.70;100.00
70304;BME280;57712;48.752;11.348;2023-05-23T04:32:23;97276.09;;;15.46;100.00
70304;BME280;57712;48.752;11.348;2023-05-23T04:34:55;97280.09;;;15.54;100.00
70304;BME280;57712;48.752;11.348;2023-05-23T04:37:23;97278.59;;;15.63;100.00
70304;BME280;57712;48.752;11.348;2023-05-23T04:39:51;97276.31;;;15.70;100.00
70304;BME280;57712;48.752;11.348;2023-05-23T04:42:18;97288.59;;;15.78;100.00
70304;BME280;57712;48.752;11.348;2023-05-23T04:44:50;97284.47;;;16.01;100.00
70304;BME280;57712;48.752;11.348;2023-05-23T04:47:18;97284.47;;;16.29;100.00
70304;BME280;57712;48.752;11.348;2023-05-23T04:49:46;97285.06;;;16.24;100.00
70304;BME280;57712;48.752;11.348;2023-05-23T04:52:13;97288.59;;;16.33;100.00
70304;BME280;57712;48.752;11.348;2023-05-23T04:54:40;97283.53;;;16.41;100.00
70304;BME280;57712;48.752;11.348;2023-05-23T04:57:10;97298.88;;;16.33;100.00
70304;BME280;57712;48.752;11.348;2023-05-23T04:59:37;97291.47;;;16.66;100.00
70304;BME280;57712;48.752;11.348;2023-05-23T05:02:04;97286.28;;;16.68;100.00
70304;BME280;57712;48.752;11.348;2023-05-23T05:04:31;97288.94;;;16.96;100.00
70304;BME280;57712;48.752;11.348;2023-05-23T05:06:58;97289.81;;;17.11;100.00
70304;BME280;57712;48.752;11.348;2023-05-23T05:09:25;97290.66;;;17.26;100.00
70304;BME280;57712;48.752;11.348;2023-05-23T05:11:52;97275.09;;;17.62;100.00
70304;BME280;57712;48.752;11.348;2023-05-23T05:14:18;97282.47;;;17.41;100.00
70304;BME280;57712;48.752;11.348;2023-05-23T05:16:45;97289.56;;;17.33;100.00
70304;BME280;57712;48.752;11.348;2023-05-23T05:19:13;97285.28;;;17.56;100.00
70304;BME280;57712;48.752;11.348;2023-05-23T05:21:39;97286.38;;;17.49;100.00
70304;BME280;57712;48.752;11.348;2023-05-23T05:24:06;97292.66;;;17.59;100.00
70304;BME280;57712;48.752;11.348;2023-05-23T05:26:35;97286.06;;;17.56;100.00
70304;BME280;57712;48.752;11.348;2023-05-23T05:29:02;97286.91;;;17.96;100.00
70304;BME280;57712;48.752;11.348;2023-05-23T05:31:29;97289.53;;;17.66;100.00
70304;BME280;57712;48.752;11.348;2023-05-23T05:33:56;97296.16;;;18.31;100.00
70304;BME280;57712;48.752;11.348;2023-05-23T05:36:23;97289.75;;;18.25;100.00
70304;BME280;57712;48.752;11.348;2023-05-23T05:38:50;97296.16;;;18.31;100.00
70304;BME280;57712;48.752;11.348;2023-05-23T05:41:17;97301.66;;;18.55;100.00
70304;BME280;57712;48.752;11.348;2023-05-23T05:43:43;97293.59;;;18.42;100.00
70304;BME280;57712;48.752;11.348;2023-05-23T05:46:10;97296.66;;;18.44;100.00
70304;BME280;57712;48.752;11.348;2023-05-23T05:48:37;97289.75;;;18.55;100.00
70304;BME280;57712;48.752;11.348;2023-05-23T05:51:04;97289.72;;;18.93;100.00
70304;BME280;57712;48.752;11.348;2023-05-23T05:53:30;97300.16;;;18.69;100.00
70304;BME280;57712;48.752;11.348;2023-05-23T05:55:57;97297.66;;;18.71;100.00
70304;BME280;57712;48.752;11.348;2023-05-23T05:58:24;97288.59;;;19.35;100.00
70304;BME280;57712;48.752;11.348;2023-05-23T06:00:50;97295.00;;;19.41;100.00
70304;BME280;57712;48.752;11.348;2023-05-23T06:03:18;97293.97;;;19.24;100.00
70304;BME280;57712;48.752;11.348;2023-05-23T06:05:45;97293.97;;;19.39;100.00
70304;BME280;57712;48.752;11.348;2023-05-23T06:08:12;97301.91;;;19.81;100.00
70304;BME280;57712;48.752;11.348;2023-05-23T06:10:39;97304.16;;;19.47;100.00
70304;BME280;57712;48.752;11.348;2023-05-23T06:13:07;97311.88;;;19.73;100.00
70304;BME280;57712;48.752;11.348;2023-05-23T06:15:35;97317.78;;;19.45;100.00
70304;BME280;57712;48.752;11.348;2023-05-23T06:18:02;97310.53;;;19.33;100.00
70304;BME280;57712;48.752;11.348;2023-05-23T06:20:28;97310.88;;;19.55;100.00
70304;BME280;57712;48.752;11.348;2023-05-23T06:22:55;97317.88;;;19.51;100.00
70304;BME280;57712;48.752;11.348;2023-05-23T06:25:22;97315.38;;;18.88;100.00
70304;BME280;57712;48.752;11.348;2023-05-23T06:27:49;97320.44;;;19.04;100.00
70304;BME280;57712;48.752;11.348;2023-05-23T06:30:16;97322.75;;;18.77;100.00
70304;BME280;57712;48.752;11.348;2023-05-23T06:32:42;97325.22;;;19.04;100.00
70304;BME280;57712;48.752;11.348;2023-05-23T06:35:09;97330.97;;;18.71;100.00
70304;BME280;57712;48.752;11.348;2023-05-23T06:37:36;97326.75;;;19.05;100.00
70304;BME280;57712;48.752;11.348;2023-05-23T06:40:03;97332.88;;;19.09;100.00
70304;BME280;57712;48.752;11.348;2023-05-23T06:42:30;97336.25;;;18.98;100.00
70304;BME280;57712;48.752;11.348;2023-05-23T06:44:59;97333.78;;;18.62;100.00
70304;BME280;57712;48.752;11.348;2023-05-23T06:47:25;97340.16;;;18.77;100.00
70304;BME280;57712;48.752;11.348;2023-05-23T06:49:52;97340.13;;;19.07;100.00
70304;BME280;57712;48.752;11.348;2023-05-23T06:52:19;97331.53;;;18.75;100.00
70304;BME280;57712;48.752;11.348;2023-05-23T06:54:45;97337.34;;;18.62;100.00
70304;BME280;57712;48.752;11.348;2023-05-23T06:57:12;97343.50;;;18.81;100.00
70304;BME280;57712;48.752;11.348;2023-05-23T06:59:39;97335.56;;;19.18;100.00
70304;BME280;57712;48.752;11.348;2023-05-23T07:02:05;97336.22;;;18.30;100.00
70304;BME280;57712;48.752;11.348;2023-05-23T07:04:32;97340.16;;;18.77;100.00
70304;BME280;57712;48.752;11.348;2023-05-23T07:06:59;97339.00;;;18.98;100.00
70304;BME280;57712;48.752;11.348;2023-05-23T07:09:26;97344.94;;;19.21;100.00
70304;BME280;57712;48.752;11.348;2023-05-23T07:11:53;97357.56;;;18.92;100.00
70304;BME280;57712;48.752;11.348;2023-05-23T07:14:19;97356.72;;;18.86;100.00
70304;BME280;57712;48.752;11.348;2023-05-23T07:16:46;97347.16;;;18.87;100.00
70304;BME280;57712;48.752;11.348;2023-05-23T07:19:15;97353.00;;;19.19;100.00
70304;BME280;57712;48.752;11.348;2023-05-23T07:21:42;97347.16;;;19.67;100.00
70304;BME280;57712;48.752;11.348;2023-05-23T07:24:09;97350.06;;;20.13;100.00
70304;BME280;57712;48.752;11.348;2023-05-23T07:26:36;97355.53;;;20.68;100.00
70304;BME280;57712;48.752;11.348;2023-05-23T07:29:02;97349.66;;;20.87;100.00
70304;BME280;57712;48.752;11.348;2023-05-23T07:31:29;97350.34;;;20.82;100.00
70304;BME280;57712;48.752;11.348;2023-05-23T07:33:56;97346.13;;;20.92;100.00
70304;BME280;57712;48.752;11.348;2023-05-23T07:36:23;97350.22;;;21.22;100.00
70304;BME280;57712;48.752;11.348;2023-05-23T07:38:50;97347.22;;;20.48;100.00
70304;BME280;57712;48.752;11.348;2023-05-23T07:41:18;97350.97;;;19.84;100.00
70304;BME280;57712;48.752;11.348;2023-05-23T07:43:45;97354.50;;;19.84;100.00
70304;BME280;57712;48.752;11.348;2023-05-23T07:46:12;97357.44;;;20.36;100.00
70304;BME280;57712;48.752;11.348;2023-05-23T07:48:38;97357.81;;;20.44;100.00
70304;BME280;57712;48.752;11.348;2023-05-23T07:51:05;97365.28;;;20.58;100.00
70304;BME280;57712;48.752;11.348;2023-05-23T07:53:32;97363.31;;;19.83;100.00
70304;BME280;57712;48.752;11.348;2023-05-23T07:55:59;97369.81;;;20.15;100.00
70304;BME280;57712;48.752;11.348;2023-05-23T07:58:26;97363.34;;;20.03;100.00
70304;BME280;57712;48.752;11.348;2023-05-23T08:00:53;97360.16;;;20.51;100.00
70304;BME280;57712;48.752;11.348;2023-05-23T08:03:20;97355.59;;;21.00;100.00
70304;BME280;57712;48.752;11.348;2023-05-23T08:05:47;97363.94;;;21.00;100.00
70304;BME280;57712;48.752;11.348;2023-05-23T08:08:14;97364.34;;;20.87;100.00
70304;BME280;57712;48.752;11.348;2023-05-23T08:10:41;97358.47;;;21.74;100.00
70304;BME280;57712;48.752;11.348;2023-05-23T08:13:09;97354.44;;;22.24;100.00
70304;BME280;57712;48.752;11.348;2023-05-23T08:15:35;97357.00;;;21.84;100.00
70304;BME280;57712;48.752;11.348;2023-05-23T08:18:03;97362.78;;;22.18;100.00
70304;BME280;57712;48.752;11.348;2023-05-23T08:20:30;97353.41;;;22.97;100.00
70304;BME280;57712;48.752;11.348;2023-05-23T08:23:00;97370.88;;;21.73;100.00
70304;BME280;57712;48.752;11.348;2023-05-23T08:25:28;97358.69;;;22.08;100.00
70304;BME280;57712;48.752;11.348;2023-05-23T08:27:59;97365.78;;;21.35;100.00
70304;BME280;57712;48.752;11.348;2023-05-23T08:30:27;97370.47;;;21.23;100.00
70304;BME280;57712;48.752;11.348;2023-05-23T08:32:55;97364.84;;;21.43;100.00
70304;BME280;57712;48.752;11.348;2023-05-23T08:35:22;97367.53;;;21.64;100.00
70304;BME280;57712;48.752;11.348;2023-05-23T08:37:49;97368.19;;;21.47;100.00
70304;BME280;57712;48.752;11.348;2023-05-23T08:40:20;97376.31;;;21.25;100.00
70304;BME280;57712;48.752;11.348;2023-05-23T08:42:49;97368.38;;;21.44;100.00
70304;BME280;57712;48.752;11.348;2023-05-23T08:45:17;97371.34;;;21.66;100.00
70304;BME280;57712;48.752;11.348;2023-05-23T08:47:44;97373.41;;;21.71;100.00
70304;BME280;57712;48.752;11.348;2023-05-23T08:50:15;97368.66;;;21.46;100.00
70304;BME280;57712;48.752;11.348;2023-05-23T08:55:27;97372.94;;;21.15;100.00
70304;BME280;57712;48.752;11.348;2023-05-23T08:57:57;97375.91;;;22.06;100.00
70304;BME280;57712;48.752;11.348;2023-05-23T09:00:29;97374.50;;;22.22;100.00
70304;BME280;57712;48.752;11.348;2023-05-23T09:02:56;97376.09;;;22.45;100.00
70304;BME280;57712;48.752;11.348;2023-05-23T09:05:25;97379.16;;;22.47;100.00
70304;BME280;57712;48.752;11.348;2023-05-23T09:07:52;97369.84;;;22.08;100.00
70304;BME280;57712;48.752;11.348;2023-05-23T09:10:20;97383.03;;;22.67;100.00
70304;BME280;57712;48.752;11.348;2023-05-23T09:12:48;97386.97;;;22.32;100.00
70304;BME280;57712;48.752;11.348;2023-05-23T09:15:15;97384.38;;;21.80;100.00
70304;BME280;57712;48.752;11.348;2023-05-23T09:17:43;97384.81;;;21.73;100.00
70304;BME280;57712;48.752;11.348;2023-05-23T09:20:16;97389.03;;;21.95;100.00
70304;BME280;57712;48.752;11.348;2023-05-23T09:22:47;97391.09;;;22.00;100.00
70304;BME280;57712;48.752;11.348;2023-05-23T09:25:14;97400.72;;;22.41;100.00
70304;BME280;57712;48.752;11.348;2023-05-23T09:27:41;97396.31;;;21.86;100.00
70304;BME280;57712;48.752;11.348;2023-05-23T09:30:13;97394.53;;;21.83;100.00
70304;BME280;57712;48.752;11.348;2023-05-23T09:32:40;97390.78;;;21.55;100.00
70304;BME280;57712;48.752;11.348;2023-05-23T09:35:08;97399.53;;;21.37;100.00
70304;BME280;57712;48.752;11.348;2023-05-23T09:37:42;97398.94;;;21.27;100.00
70304;BME280;57712;48.752;11.348;2023-05-23T09:40:12;97406.28;;;21.30;100.00
70304;BME280;57712;48.752;11.348;2023-05-23T09:42:42;97407.59;;;21.66;100.00
70304;BME280;57712;48.752;11.348;2023-05-23T09:45:10;97407.16;;;21.42;100.00
70304;BME280;57712;48.752;11.348;2023-05-23T09:47:37;97416.41;;;21.27;100.00
70304;BME280;57712;48.752;11.348;2023-05-23T09:50:05;97403.59;;;20.89;100.00
70304;BME280;57712;48.752;11.348;2023-05-23T09:52:36;97405.56;;;21.09;100.00
70304;BME280;57712;48.752;11.348;2023-05-23T09:55:06;97412.91;;;21.32;100.00
70304;BME280;57712;48.752;11.348;2023-05-23T09:57:34;97409.94;;;21.42;100.00
70304;BME280;57712;48.752;11.348;2023-05-23T10:00:03;97406.66;;;21.43;100.00
70304;BME280;57712;48.752;11.348;2023-05-23T10:05:08;97412.13;;;21.64;100.00
70304;BME280;57712;48.752;11.348;2023-05-23T10:07:39;97406.69;;;21.80;100.00
70304;BME280;57712;48.752;11.348;2023-05-23T10:10:08;97419.56;;;21.72;100.00
70304;BME280;57712;48.752;11.348;2023-05-23T10:12:43;97414.50;;;21.76;100.00
70304;BME280;57712;48.752;11.348;2023-05-23T10:15:14;97410.88;;;22.02;100.00
70304;BME280;57712;48.752;11.348;2023-05-23T10:20:21;97423.72;;;21.56;100.00
70304;BME280;57712;48.752;11.348;2023-05-23T10:22:51;97413.94;;;22.04;100.00
70304;BME280;57712;48.752;11.348;2023-05-23T10:25:18;97425.25;;;22.26;100.00
70304;BME280;57712;48.752;11.348;2023-05-23T10:27:47;97422.81;;;22.02;100.00
70304;BME280;57712;48.752;11.348;2023-05-23T10:30:14;97419.41;;;22.24;100.00
70304;BME280;57712;48.752;11.348;2023-05-23T10:32:41;97420.06;;;22.56;100.00
70304;BME280;57712;48.752;11.348;2023-05-23T10:41:08;97418.84;;;22.74;100.00
70304;BME280;57712;48.752;11.348;2023-05-23T10:46:12;97411.41;;;23.81;100.00
70304;BME280;57712;48.752;11.348;2023-05-23T10:48:43;97412.66;;;23.46;99.80
70304;BME280;57712;48.752;11.348;2023-05-23T10:51:11;97405.25;;;23.10;100.00
70304;BME280;57712;48.752;11.348;2023-05-23T10:53:44;97397.66;;;23.27;98.79
70304;BME280;57712;48.752;11.348;2023-05-23T10:56:20;97397.66;;;23.72;97.81
70304;BME280;57712;48.752;11.348;2023-05-23T10:58:53;97398.69;;;23.46;100.00
70304;BME280;57712;48.752;11.348;2023-05-23T11:01:20;97388.50;;;23.32;100.00
70304;BME280;57712;48.752;11.348;2023-05-23T11:09:04;97391.94;;;22.82;100.00
70304;BME280;57712;48.752;11.348;2023-05-23T11:11:53;97383.94;;;23.63;99.97
70304;BME280;57712;48.752;11.348;2023-05-23T11:17:15;97380.88;;;25.46;90.40
70304;BME280;57712;48.752;11.348;2023-05-23T11:19:55;97392.13;;;25.40;89.63
70304;BME280;57712;48.752;11.348;2023-05-23T11:22:27;97386.16;;;25.25;80.73
70304;BME280;57712;48.752;11.348;2023-05-23T11:24:59;97392.47;;;24.32;93.21
70304;BME280;57712;48.752;11.348;2023-05-23T11:27:33;97387.66;;;24.15;92.02
70304;BME280;57712;48.752;11.348;2023-05-23T11:30:06;97388.47;;;23.54;96.74
70304;BME280;57712;48.752;11.348;2023-05-23T11:32:35;97393.09;;;23.57;100.00
70304;BME280;57712;48.752;11.348;2023-05-23T11:35:07;97392.19;;;24.41;90.05
70304;BME280;57712;48.752;11.348;2023-05-23T11:37:36;97387.72;;;24.73;88.23
70304;BME280;57712;48.752;11.348;2023-05-23T11:42:51;97386.06;;;25.36;90.56
70304;BME280;57712;48.752;11.348;2023-05-23T11:45:20;97377.31;;;24.63;91.88
70304;BME280;57712;48.752;11.348;2023-05-23T11:47:46;97387.09;;;25.33;97.11
70304;BME280;57712;48.752;11.348;2023-05-23T11:50:14;97380.44;;;24.95;89.19
70304;BME280;57712;48.752;11.348;2023-05-23T11:52:41;97385.00;;;25.69;88.23
70304;BME280;57712;48.752;11.348;2023-05-23T11:55:08;97390.22;;;24.77;83.20
70304;BME280;57712;48.752;11.348;2023-05-23T11:57:38;97395.28;;;24.32;86.79
70304;BME280;57712;48.752;11.348;2023-05-23T12:00:06;97387.97;;;23.95;93.85
70304;BME280;57712;48.752;11.348;2023-05-23T12:02:38;97387.72;;;23.54;96.19
70304;BME280;57712;48.752;11.348;2023-05-23T12:05:12;97384.44;;;23.78;95.63
70304;BME280;57712;48.752;11.348;2023-05-23T12:07:40;97389.13;;;24.28;93.62
70304;BME280;57712;48.752;11.348;2023-05-23T12:10:10;97391.38;;;24.46;95.06
70304;BME280;57712;48.752;11.348;2023-05-23T12:12:37;97395.84;;;24.77;86.20
70304;BME280;57712;48.752;11.348;2023-05-23T12:15:07;97405.03;;;24.72;89.10
70304;BME280;57712;48.752;11.348;2023-05-23T12:17:35;97397.06;;;25.28;84.67
70304;BME280;57712;48.752;11.348;2023-05-23T12:20:06;97408.44;;;25.42;87.63
70304;BME280;57712;48.752;11.348;2023-05-23T12:22:33;97405.91;;;24.97;82.40
70304;BME280;57712;48.752;11.348;2023-05-23T12:25:00;97409.81;;;23.97;85.51
70304;BME280;57712;48.752;11.348;2023-05-23T12:27:28;97401.13;;;24.34;90.40
70304;BME280;57712;48.752;11.348;2023-05-23T12:32:33;97400.03;;;24.48;92.81
70304;BME280;57712;48.752;11.348;2023-05-23T12:34:59;97399.91;;;24.82;80.02
70304;BME280;57712;48.752;11.348;2023-05-23T12:37:26;97418.41;;;24.27;82.40
70304;BME280;57712;48.752;11.348;2023-05-23T12:39:53;97405.25;;;23.99;80.97
70304;BME280;57712;48.752;11.348;2023-05-23T12:42:20;97403.50;;;23.74;79.66
70304;BME280;57712;48.752;11.348;2023-05-23T12:44:50;97421.31;;;23.59;83.85
70304;BME280;57712;48.752;11.348;2023-05-23T12:47:17;97422.75;;;24.33;85.80
70304;BME280;57712;48.752;11.348;2023-05-23T12:49:44;97414.69;;;23.79;78.04
70304;BME280;57712;48.752;11.348;2023-05-23T12:52:12;97418.50;;;23.93;83.24
70304;BME280;57712;48.752;11.348;2023-05-23T12:54:39;97424.88;;;23.82;85.43
70304;BME280;57712;48.752;11.348;2023-05-23T12:57:06;97423.63;;;23.67;81.12
70304;BME280;57712;48.752;11.348;2023-05-23T12:59:32;97429.22;;;23.78;83.71
70304;BME280;57712;48.752;11.348;2023-05-23T13:01:59;97432.25;;;23.91;83.68
70304;BME280;57712;48.752;11.348;2023-05-23T13:04:27;97425.38;;;23.86;79.37
70304;BME280;57712;48.752;11.348;2023-05-23T13:06:57;97429.16;;;23.44;73.46
70304;BME280;57712;48.752;11.348;2023-05-23T13:09:23;97424.09;;;23.65;80.50
70304;BME280;57712;48.752;11.348;2023-05-23T13:11:50;97424.09;;;23.37;75.31
70304;BME280;57712;48.752;11.348;2023-05-23T13:14:18;97428.44;;;23.60;80.06
70304;BME280;57712;48.752;11.348;2023-05-23T13:16:44;97431.38;;;22.95;78.67
70304;BME280;57712;48.752;11.348;2023-05-23T13:19:11;97436.25;;;23.12;75.89